05:00
Airports
History
Links
Donate
Help keep this website running!
PayPal
Bitcoin
This page is community maintained. The information is intended for PC simulator navigation or reference.
Always use approved charts for navigation.
52GA
Ayresport
Ayresport (52GA)
Dawson, Georgia, United States (39842)
(U)
Lat/Lng:31° 38' 42.62" N / 84° 19' 14.68" W
31.645171 / -84.320745
Elevation:276'ft / 84mMSL
ID / ICAO:52GA
Runways:1
Longest:10-28
Asphalt 756m / 2,482ft
Nearby Weather04:53 GMT 2018-01-21
Nearby weather at KABY, Southwest Georgia Rgnl located 10.6 nautical miles from 52GA
Altimeter: 30.30
Visibility: 10.0 statute miles
Wind: 0 knots (from 000°)
Temp: 8°c / 46°f
Humidity: 75.8%

METAR: KABY 210453Z AUTO 00000KT 10SM CLR 08/04 A3030 RMK AO2 SLP259 T00830044 401831022

(Powered by phpweather)
Nearby VORs <50NM
Nearby NDBs
Runway 10 / 28
Dimensions:756.4 x 9.1m 2482' x 30'ft
Surface:Asphalt
Runway 10 [A]Runway 28 [B]
Heading:098°TH 278°TH
Lat:
Lng:
31° 38' 44.33"N
84° 19' 29.04"W
31° 38' 40.9"N
84° 19' 0.32"W
User Notes and Comments
31° 38' 42.62" N / 84° 19' 14.68" W
Distance To
Airport ID:
Nearby Airports
4 Tallassee Plantation 5.9 NM
GA12 SW 223°
(U) Dawson Muni 8.9 NM
16J NW 319°
(C) Southwest Georgia Rgnl 10.6 NM
KABY ( WX ) SE 135°
(R) Leesburg Spraying 14.6 NM
8GA3 NE 52°
(R) Young Field 16.4 NM
9GA3 NW 324°
(R) Pinebloom Plantation 16.7 NM
GA14 S 180°
4 Double O Farm 20.2 NM
GA13 ESE 112°
VFR Chart
Flight Planning at SkyVector.com